createdAt,value
2023-03-19T00:01:29.817Z,2.30
2023-03-19T00:03:56.720Z,1.95
2023-03-19T00:06:23.448Z,2.42
2023-03-19T00:08:51.398Z,2.80
2023-03-19T00:11:18.181Z,2.25
2023-03-19T00:13:44.937Z,2.60
2023-03-19T00:16:11.904Z,2.72
2023-03-19T00:18:57.456Z,3.27
2023-03-19T00:24:10.022Z,3.27
2023-03-19T00:26:37.522Z,3.80
2023-03-19T00:29:05.787Z,4.45
2023-03-19T00:31:33.175Z,3.90
2023-03-19T00:34:00.404Z,3.65
2023-03-19T00:36:28.801Z,3.63
2023-03-19T00:38:57.694Z,3.00
2023-03-19T00:41:25.057Z,3.30
2023-03-19T00:43:58.659Z,7.33
2023-03-19T00:46:26.553Z,3.60
2023-03-19T00:48:55.646Z,3.67
2023-03-19T00:51:24.164Z,3.33
2023-03-19T00:53:51.499Z,4.70
2023-03-19T00:56:19.055Z,3.10
2023-03-19T00:58:47.794Z,2.20
2023-03-19T01:01:17.456Z,1.83
2023-03-19T01:03:45.416Z,1.20
2023-03-19T01:06:13.271Z,1.20
2023-03-19T01:08:40.576Z,1.70
2023-03-19T01:11:09.952Z,1.77
2023-03-19T01:13:37.837Z,1.80
2023-03-19T01:16:23.426Z,0.90
2023-03-19T01:18:50.238Z,1.13
2023-03-19T01:21:17.211Z,0.70
2023-03-19T01:23:46.960Z,0.35
2023-03-19T01:26:13.878Z,0.50
2023-03-19T01:28:41.544Z,0.43
2023-03-19T01:31:09.657Z,0.40
2023-03-19T01:33:55.828Z,0.40
2023-03-19T01:36:32.370Z,0.20
2023-03-19T01:39:02.152Z,0.20
2023-03-19T01:41:28.849Z,0.30
2023-03-19T01:44:02.447Z,0.50
2023-03-19T01:46:39.903Z,0.20
2023-03-19T01:49:32.975Z,0.20
2023-03-19T01:52:15.769Z,0.15
2023-03-19T01:55:07.436Z,0.10
2023-03-19T01:57:50.408Z,0.10
2023-03-19T02:00:40.930Z,0.10
2023-03-19T02:03:08.092Z,0.20
2023-03-19T02:05:56.716Z,0.20
2023-03-19T02:08:25.350Z,0.10
2023-03-19T02:10:54.020Z,0.10
2023-03-19T02:13:21.329Z,0.00
2023-03-19T02:15:48.834Z,0.00
2023-03-19T02:18:16.159Z,0.10
2023-03-19T02:21:06.930Z,0.10
2023-03-19T02:23:52.663Z,0.00
2023-03-19T02:26:28.747Z,0.10
2023-03-19T02:29:19.686Z,0.10
2023-03-19T02:31:47.320Z,0.10
2023-03-19T02:34:14.070Z,0.20
2023-03-19T02:36:49.013Z,0.13
2023-03-19T02:39:24.836Z,0.25
2023-03-19T02:41:54.741Z,0.10
2023-03-19T02:44:23.307Z,0.20
2023-03-19T02:46:51.767Z,0.10
2023-03-19T02:49:19.022Z,0.10
2023-03-19T02:51:45.752Z,0.10
2023-03-19T02:54:12.724Z,0.10
2023-03-19T02:56:40.492Z,0.10
2023-03-19T02:59:07.417Z,0.10
2023-03-19T03:01:34.589Z,0.10
2023-03-19T03:04:01.390Z,0.10
2023-03-19T03:06:28.620Z,0.00
2023-03-19T03:08:55.360Z,0.10
2023-03-19T03:11:22.887Z,0.10
2023-03-19T03:13:49.919Z,0.10
2023-03-19T03:16:17.438Z,0.10
2023-03-19T03:18:44.212Z,0.10
2023-03-19T03:21:11.766Z,0.10
2023-03-19T03:23:38.456Z,0.10
2023-03-19T03:26:06.824Z,0.10
2023-03-19T03:28:33.517Z,0.43
2023-03-19T03:31:01.098Z,0.00
2023-03-19T03:33:28.304Z,0.13
2023-03-19T03:36:14.199Z,0.03
2023-03-19T03:38:40.921Z,0.10
2023-03-19T03:41:07.967Z,0.10
2023-03-19T03:43:35.083Z,0.13
2023-03-19T03:46:01.815Z,0.10
2023-03-19T03:48:28.803Z,0.20
2023-03-19T03:50:56.339Z,0.10
2023-03-19T03:53:46.466Z,0.00
2023-03-19T03:56:14.008Z,0.10
2023-03-19T03:58:41.508Z,0.00
2023-03-19T04:01:09.432Z,0.10
2023-03-19T04:03:36.250Z,0.10
2023-03-19T04:06:03.043Z,0.10
2023-03-19T04:08:30.782Z,0.00
2023-03-19T04:10:58.424Z,0.10
2023-03-19T04:13:25.724Z,0.00
2023-03-19T04:15:54.577Z,0.10
2023-03-19T04:18:21.885Z,0.00
2023-03-19T04:20:48.813Z,0.10
2023-03-19T04:23:15.687Z,0.10
2023-03-19T04:25:42.451Z,0.10
2023-03-19T04:28:09.233Z,0.10
2023-03-19T04:30:36.445Z,0.00
2023-03-19T04:33:04.923Z,0.10
2023-03-19T04:35:31.841Z,0.00
2023-03-19T04:37:59.022Z,0.10
2023-03-19T04:40:26.281Z,0.07
2023-03-19T04:42:53.619Z,0.10
2023-03-19T04:45:38.738Z,0.10
2023-03-19T04:48:07.011Z,0.10
2023-03-19T04:50:35.574Z,0.10
2023-03-19T04:53:03.352Z,0.00
2023-03-19T04:55:31.056Z,0.10
2023-03-19T04:58:09.163Z,0.10
2023-03-19T05:00:37.656Z,0.17
2023-03-19T05:03:06.421Z,0.10
2023-03-19T05:05:34.072Z,0.10
2023-03-19T05:08:05.900Z,0.10
2023-03-19T05:10:34.163Z,0.13
2023-03-19T05:13:01.315Z,0.00
2023-03-19T05:15:28.257Z,0.10
2023-03-19T05:18:05.134Z,0.07
2023-03-19T05:20:38.009Z,0.10
2023-03-19T05:23:08.290Z,0.10
2023-03-19T05:25:53.492Z,0.10
2023-03-19T05:28:33.481Z,0.10
2023-03-19T05:31:21.885Z,0.05
2023-03-19T05:33:52.392Z,0.20
2023-03-19T05:36:37.453Z,0.10
2023-03-19T05:39:32.239Z,0.10
2023-03-19T05:42:03.492Z,0.10
2023-03-19T05:47:18.276Z,0.10
2023-03-19T05:49:50.743Z,0.30
2023-03-19T05:52:17.821Z,0.13
2023-03-19T05:54:49.345Z,0.10
2023-03-19T05:57:39.434Z,0.28
2023-03-19T06:00:14.913Z,0.20
2023-03-19T06:02:43.087Z,0.13
2023-03-19T06:05:24.921Z,0.20
2023-03-19T06:07:54.732Z,0.20
2023-03-19T06:10:47.827Z,0.20
2023-03-19T06:13:14.746Z,0.10
2023-03-19T06:15:52.897Z,0.20
2023-03-19T06:18:33.535Z,0.20
2023-03-19T06:21:05.926Z,0.22
2023-03-19T06:23:33.005Z,0.40
2023-03-19T06:26:01.975Z,0.20
2023-03-19T06:28:33.977Z,0.20
2023-03-19T06:31:02.124Z,0.10
2023-03-19T06:33:47.372Z,0.10
2023-03-19T06:36:14.212Z,0.20
2023-03-19T06:38:41.244Z,0.10
2023-03-19T06:41:07.976Z,0.22
2023-03-19T06:43:37.346Z,0.20
2023-03-19T06:46:05.190Z,0.33
2023-03-19T06:48:32.190Z,0.40
2023-03-19T06:50:59.255Z,0.20
2023-03-19T06:53:26.093Z,0.40
2023-03-19T06:55:53.100Z,0.28
2023-03-19T06:58:19.956Z,0.38
2023-03-19T07:00:47.464Z,0.30
2023-03-19T07:03:14.284Z,0.20
2023-03-19T07:05:41.055Z,0.40
2023-03-19T07:08:11.950Z,0.20
2023-03-19T07:10:39.687Z,0.60
2023-03-19T07:13:07.190Z,0.20
2023-03-19T07:15:34.427Z,0.80
2023-03-19T07:18:01.118Z,0.20
2023-03-19T07:23:13.370Z,0.30
2023-03-19T07:25:40.198Z,0.38
2023-03-19T07:28:07.251Z,0.28
2023-03-19T07:30:34.159Z,0.40
2023-03-19T07:33:01.380Z,0.40
2023-03-19T07:35:28.215Z,0.27
2023-03-19T07:37:54.981Z,0.28
2023-03-19T07:40:21.920Z,0.40
2023-03-19T07:42:48.791Z,0.40
2023-03-19T07:45:15.838Z,0.50
2023-03-19T07:47:42.753Z,0.20
2023-03-19T07:50:10.115Z,0.27
2023-03-19T07:52:37.113Z,0.82
2023-03-19T07:55:04.201Z,0.30
2023-03-19T07:57:33.069Z,0.20
2023-03-19T07:59:59.917Z,0.53
2023-03-19T08:02:26.666Z,0.22
2023-03-19T08:04:54.478Z,0.43
2023-03-19T08:07:21.712Z,0.50
2023-03-19T08:09:48.454Z,0.35
2023-03-19T08:12:15.401Z,0.32
2023-03-19T08:14:42.111Z,0.40
2023-03-19T08:17:09.099Z,0.40
2023-03-19T08:19:35.844Z,0.30
2023-03-19T08:22:02.644Z,0.28
2023-03-19T08:24:29.351Z,0.35
2023-03-19T08:26:56.303Z,0.20
2023-03-19T08:29:23.074Z,0.17
2023-03-19T08:31:49.799Z,0.30
2023-03-19T08:34:17.043Z,0.20
2023-03-19T08:36:44.007Z,0.30
2023-03-19T08:39:11.035Z,0.57
2023-03-19T08:41:37.766Z,0.35
2023-03-19T08:44:04.688Z,0.20
2023-03-19T08:46:32.030Z,0.40
2023-03-19T08:48:59.098Z,0.20
2023-03-19T08:51:27.184Z,0.40
2023-03-19T08:53:54.442Z,0.55
2023-03-19T08:56:21.206Z,0.75
2023-03-19T08:58:48.024Z,0.20
2023-03-19T09:01:15.574Z,0.10
2023-03-19T09:03:43.866Z,0.57
2023-03-19T09:06:12.633Z,0.30
2023-03-19T09:08:57.864Z,0.32
2023-03-19T09:11:24.716Z,0.30
2023-03-19T09:13:51.676Z,0.20
2023-03-19T09:16:18.717Z,0.10
2023-03-19T09:18:45.470Z,0.10
2023-03-19T09:21:12.280Z,0.22
2023-03-19T09:23:39.008Z,0.10
2023-03-19T09:26:05.799Z,0.35
2023-03-19T09:28:32.624Z,0.20
2023-03-19T09:30:59.451Z,1.35
2023-03-19T09:33:26.274Z,0.38
2023-03-19T09:35:54.301Z,0.30
2023-03-19T09:38:22.348Z,0.20
2023-03-19T09:44:16.294Z,0.30
2023-03-19T09:46:54.819Z,0.20
2023-03-19T09:49:26.573Z,0.20
2023-03-19T09:51:57.293Z,0.20
2023-03-19T09:54:45.126Z,0.30
2023-03-19T09:57:14.919Z,0.20
2023-03-19T10:00:00.463Z,0.10
2023-03-19T10:02:48.865Z,0.20
2023-03-19T10:05:27.581Z,0.32
2023-03-19T10:08:20.653Z,0.10
2023-03-19T10:11:15.529Z,0.20
2023-03-19T10:14:05.120Z,0.10
2023-03-19T10:16:32.137Z,0.10
2023-03-19T10:19:03.240Z,0.20
2023-03-19T10:21:48.094Z,0.50
2023-03-19T10:24:22.940Z,0.20
2023-03-19T10:26:58.135Z,0.20
2023-03-19T10:29:24.908Z,0.17
2023-03-19T10:32:07.687Z,0.22
2023-03-19T10:34:37.251Z,0.20
2023-03-19T10:37:05.997Z,0.13
2023-03-19T10:39:37.873Z,0.63
2023-03-19T10:42:20.308Z,0.20
2023-03-19T10:44:56.841Z,0.20
2023-03-19T10:47:26.710Z,0.20
2023-03-19T10:49:53.503Z,0.20
2023-03-19T10:52:39.383Z,0.10
2023-03-19T10:55:41.478Z,0.20
2023-03-19T10:58:44.756Z,0.10
2023-03-19T11:01:49.398Z,0.20
2023-03-19T11:04:22.084Z,0.25
2023-03-19T11:07:06.508Z,0.20
2023-03-19T11:09:36.962Z,0.10
2023-03-19T11:12:37.568Z,0.30
2023-03-19T11:15:14.886Z,0.47
2023-03-19T11:17:57.068Z,0.22
2023-03-19T11:20:27.493Z,0.20
2023-03-19T11:22:56.444Z,0.25
2023-03-19T11:25:47.087Z,0.70
2023-03-19T11:28:21.539Z,0.38
2023-03-19T11:31:10.431Z,0.35
2023-03-19T11:34:38.786Z,0.57
2023-03-19T11:37:20.602Z,0.28
2023-03-19T11:40:11.988Z,0.28
2023-03-19T11:43:06.880Z,0.15
2023-03-19T11:45:48.219Z,0.20
2023-03-19T11:48:33.069Z,0.40
2023-03-19T11:51:12.353Z,0.60
2023-03-19T11:54:04.980Z,0.50
2023-03-19T11:56:37.215Z,0.65
2023-03-19T11:59:12.870Z,0.30
2023-03-19T12:02:13.537Z,0.30
2023-03-19T12:05:24.741Z,0.30
2023-03-19T12:08:23.865Z,0.22
2023-03-19T12:11:24.317Z,0.70
2023-03-19T12:14:17.197Z,0.20
2023-03-19T12:17:22.698Z,0.30
2023-03-19T12:20:18.589Z,0.52
2023-03-19T12:23:12.473Z,0.30
2023-03-19T12:26:00.405Z,0.30
2023-03-19T12:28:47.055Z,0.25
2023-03-19T12:31:43.093Z,0.20
2023-03-19T12:34:31.553Z,0.47
2023-03-19T12:37:13.978Z,0.30
2023-03-19T12:39:51.527Z,0.30
2023-03-19T12:42:39.680Z,0.30
2023-03-19T12:45:19.797Z,0.43
2023-03-19T12:47:47.924Z,0.35
2023-03-19T12:50:17.449Z,0.38
2023-03-19T12:52:49.616Z,0.32
2023-03-19T12:55:40.429Z,1.08
2023-03-19T12:58:51.603Z,1.13
2023-03-19T13:01:27.295Z,0.50
2023-03-19T13:04:20.697Z,0.30
2023-03-19T13:06:58.815Z,0.93
2023-03-19T13:09:33.644Z,0.60
2023-03-19T13:12:05.160Z,0.30
2023-03-19T13:15:06.978Z,0.65
2023-03-19T13:17:59.025Z,0.60
2023-03-19T13:20:34.101Z,0.55
2023-03-19T13:23:04.625Z,0.30
2023-03-19T13:25:35.889Z,2.42
2023-03-19T13:28:33.859Z,0.60
2023-03-19T13:31:06.070Z,0.35
2023-03-19T13:33:38.822Z,0.40
2023-03-19T13:36:09.042Z,0.45
2023-03-19T13:38:46.931Z,0.50
2023-03-19T13:41:35.418Z,0.30
2023-03-19T13:44:40.820Z,0.38
2023-03-19T13:47:26.533Z,0.60
2023-03-19T13:50:05.343Z,0.28
2023-03-19T13:52:32.003Z,0.30
2023-03-19T13:55:24.421Z,0.40
2023-03-19T13:58:38.401Z,0.60
2023-03-19T14:01:27.522Z,0.20
2023-03-19T14:03:58.644Z,0.88
2023-03-19T14:06:45.510Z,0.38
2023-03-19T14:09:42.388Z,0.20
2023-03-19T14:12:32.912Z,0.43
2023-03-19T14:15:09.326Z,0.60
2023-03-19T14:17:48.154Z,0.20
2023-03-19T14:20:17.286Z,0.50
2023-03-19T14:22:44.999Z,0.70
2023-03-19T14:25:26.342Z,0.28
2023-03-19T14:27:59.334Z,0.88
2023-03-19T14:30:37.844Z,0.20
2023-03-19T14:33:08.510Z,0.25
2023-03-19T14:35:40.397Z,0.40
2023-03-19T14:38:27.389Z,0.55
2023-03-19T14:43:58.870Z,0.65
2023-03-19T14:46:56.158Z,0.70
2023-03-19T14:49:37.824Z,0.65
2023-03-19T14:52:14.491Z,2.13
2023-03-19T14:54:49.113Z,0.88
2023-03-19T14:57:21.764Z,0.30
2023-03-19T14:59:50.413Z,0.60
2023-03-19T15:02:39.947Z,0.95
2023-03-19T15:05:28.633Z,0.70
2023-03-19T15:08:01.466Z,1.45
2023-03-19T15:10:32.511Z,0.50
2023-03-19T15:13:26.631Z,0.80
2023-03-19T15:16:22.416Z,0.50
2023-03-19T15:18:50.141Z,0.50
2023-03-19T15:21:17.802Z,0.85
2023-03-19T15:23:47.993Z,0.47
2023-03-19T15:26:18.537Z,0.38
2023-03-19T15:28:50.641Z,0.60
2023-03-19T15:31:31.843Z,0.30
2023-03-19T15:34:17.754Z,0.85
2023-03-19T15:36:45.197Z,2.15
2023-03-19T15:39:15.902Z,1.08
2023-03-19T15:41:47.511Z,0.70
2023-03-19T15:44:20.496Z,0.50
2023-03-19T15:46:48.668Z,0.77
2023-03-19T15:49:24.521Z,1.00
2023-03-19T15:51:55.340Z,1.17
2023-03-19T15:54:23.046Z,0.60
2023-03-19T15:56:52.295Z,0.43
2023-03-19T15:59:22.013Z,0.60
2023-03-19T16:01:49.955Z,0.77
2023-03-19T16:04:22.228Z,1.33
2023-03-19T16:06:50.872Z,0.50
2023-03-19T16:09:23.770Z,0.38
2023-03-19T16:11:51.902Z,0.52
2023-03-19T16:14:35.244Z,0.80
2023-03-19T16:17:29.185Z,1.33
2023-03-19T16:20:04.022Z,0.98
2023-03-19T16:22:32.832Z,0.30
2023-03-19T16:25:01.995Z,0.50
2023-03-19T16:27:36.381Z,0.43
2023-03-19T16:30:13.735Z,0.50
2023-03-19T16:32:42.356Z,0.50
2023-03-19T16:35:16.629Z,0.50
2023-03-19T16:37:44.843Z,0.63
2023-03-19T16:40:15.578Z,0.40
2023-03-19T16:43:06.000Z,0.82
2023-03-19T16:45:34.691Z,0.50
2023-03-19T16:48:03.590Z,1.00
2023-03-19T16:50:33.612Z,0.57
2023-03-19T16:53:02.902Z,0.38
2023-03-19T16:55:35.403Z,0.70
2023-03-19T16:58:05.939Z,0.40
2023-03-19T17:00:51.275Z,0.40
2023-03-19T17:03:19.303Z,0.95
2023-03-19T17:05:47.476Z,1.58
2023-03-19T17:08:14.582Z,0.80
2023-03-19T17:10:45.827Z,0.40
2023-03-19T17:13:22.582Z,0.52
2023-03-19T17:15:51.469Z,0.55
2023-03-19T17:18:40.068Z,0.55
2023-03-19T17:21:11.724Z,0.57
2023-03-19T17:23:38.764Z,0.50
2023-03-19T17:26:14.220Z,0.68
2023-03-19T17:28:41.034Z,1.10
2023-03-19T17:31:26.466Z,0.90
2023-03-19T17:34:02.788Z,0.30
2023-03-19T17:36:30.284Z,0.93
2023-03-19T17:38:57.194Z,0.65
2023-03-19T17:41:24.332Z,0.70
2023-03-19T17:43:51.147Z,0.90
2023-03-19T17:46:21.635Z,0.40
2023-03-19T17:48:50.227Z,0.40
2023-03-19T17:51:18.014Z,0.60
2023-03-19T17:53:48.564Z,1.20
2023-03-19T17:56:20.687Z,0.73
2023-03-19T17:58:50.286Z,0.45
2023-03-19T18:01:21.558Z,0.93
2023-03-19T18:03:50.504Z,0.77
2023-03-19T18:06:22.523Z,0.98
2023-03-19T18:08:49.771Z,1.08
2023-03-19T18:11:17.013Z,0.50
2023-03-19T18:13:43.885Z,0.60
2023-03-19T18:16:28.320Z,0.57
2023-03-19T18:18:59.148Z,0.93
2023-03-19T18:21:27.716Z,0.80
2023-03-19T18:23:55.248Z,0.40
2023-03-19T18:26:40.832Z,0.35
2023-03-19T18:29:07.679Z,0.30
2023-03-19T18:31:34.610Z,0.68
2023-03-19T18:36:50.037Z,0.80
2023-03-19T18:39:16.936Z,1.23
2023-03-19T18:41:44.104Z,0.70
2023-03-19T18:44:29.342Z,0.80
2023-03-19T18:46:56.061Z,0.57
2023-03-19T18:49:25.304Z,0.82
2023-03-19T18:52:02.162Z,0.63
2023-03-19T18:54:30.881Z,0.88
2023-03-19T18:57:17.026Z,0.57
2023-03-19T18:59:44.081Z,0.90
2023-03-19T19:02:21.952Z,0.60
2023-03-19T19:04:48.830Z,0.60
2023-03-19T19:07:16.340Z,0.57
2023-03-19T19:09:43.431Z,0.80
2023-03-19T19:12:18.377Z,1.10
2023-03-19T19:14:46.140Z,1.23
2023-03-19T19:17:24.089Z,1.13
2023-03-19T19:20:16.748Z,0.65
2023-03-19T19:23:02.461Z,1.90
2023-03-19T19:25:29.927Z,0.80
2023-03-19T19:28:05.214Z,0.98
2023-03-19T19:30:32.717Z,0.90
2023-03-19T19:32:59.763Z,1.20
2023-03-19T19:35:28.727Z,0.65
2023-03-19T19:40:42.319Z,0.63
2023-03-19T19:43:18.483Z,0.60
2023-03-19T19:45:47.855Z,0.68
2023-03-19T19:48:17.261Z,0.70
2023-03-19T19:50:46.423Z,0.30
2023-03-19T19:53:15.069Z,0.53
2023-03-19T19:55:42.273Z,0.83
2023-03-19T19:58:28.804Z,0.77
2023-03-19T20:01:03.225Z,0.90
2023-03-19T20:03:32.599Z,0.73
2023-03-19T20:06:00.932Z,0.57
2023-03-19T20:08:28.597Z,0.67
2023-03-19T20:10:56.598Z,1.10
2023-03-19T20:13:26.391Z,0.88
2023-03-19T20:15:55.902Z,0.70
2023-03-19T20:18:24.567Z,0.85
2023-03-19T20:20:51.957Z,1.07
2023-03-19T20:23:19.058Z,1.33
2023-03-19T20:25:46.407Z,0.70
2023-03-19T20:31:31.130Z,0.50
2023-03-19T20:33:58.112Z,0.70
2023-03-19T20:36:25.287Z,0.40
2023-03-19T20:38:52.642Z,0.60
2023-03-19T20:41:22.904Z,0.50
2023-03-19T20:43:50.965Z,0.60
2023-03-19T20:46:20.494Z,0.90
2023-03-19T20:48:48.063Z,0.50
2023-03-19T20:51:31.546Z,0.77
2023-03-19T20:53:58.869Z,0.70
2023-03-19T20:56:25.794Z,0.57
2023-03-19T20:58:52.855Z,0.90
2023-03-19T21:01:19.812Z,1.30
2023-03-19T21:03:46.812Z,0.70
2023-03-19T21:09:03.266Z,0.70
2023-03-19T21:11:42.129Z,0.70
2023-03-19T21:14:16.260Z,1.00
2023-03-19T21:16:43.892Z,0.75
2023-03-19T21:19:12.653Z,0.53
2023-03-19T21:21:39.777Z,0.60
2023-03-19T21:24:19.451Z,0.70
2023-03-19T21:26:47.205Z,0.75
2023-03-19T21:29:20.023Z,0.52
2023-03-19T21:31:48.016Z,0.77
2023-03-19T21:34:15.123Z,0.80
2023-03-19T21:36:42.089Z,0.63
2023-03-19T21:39:09.091Z,0.90
2023-03-19T21:41:37.283Z,0.88
2023-03-19T21:46:54.232Z,0.80
2023-03-19T21:49:22.025Z,1.00
2023-03-19T21:51:49.930Z,0.88
2023-03-19T21:54:16.868Z,0.97
2023-03-19T21:56:45.992Z,0.80
2023-03-19T21:59:19.321Z,1.40
2023-03-19T22:01:46.677Z,0.93
2023-03-19T22:04:13.641Z,1.02
2023-03-19T22:06:40.938Z,1.08
2023-03-19T22:09:07.795Z,0.60
2023-03-19T22:11:37.667Z,0.50
2023-03-19T22:14:08.140Z,0.50
2023-03-19T22:16:35.239Z,0.40
2023-03-19T22:19:02.117Z,0.47
2023-03-19T22:21:32.942Z,0.50
2023-03-19T22:23:59.897Z,0.47
2023-03-19T22:26:32.386Z,0.40
2023-03-19T22:29:04.282Z,0.47
2023-03-19T22:31:31.708Z,0.53
2023-03-19T22:33:58.632Z,0.50
2023-03-19T22:36:25.467Z,0.40
2023-03-19T22:38:52.284Z,0.70
2023-03-19T22:41:27.286Z,0.90
2023-03-19T22:43:55.255Z,0.80
2023-03-19T22:46:22.727Z,0.50
2023-03-19T22:49:08.685Z,0.57
2023-03-19T22:51:35.466Z,0.63
2023-03-19T22:54:02.232Z,0.60
2023-03-19T22:56:29.013Z,0.53
2023-03-19T22:58:56.884Z,0.82
2023-03-19T23:01:25.104Z,0.45
2023-03-19T23:03:52.004Z,0.37
2023-03-19T23:06:29.654Z,0.43
2023-03-19T23:08:57.300Z,1.20
2023-03-19T23:11:24.398Z,0.77
2023-03-19T23:13:52.113Z,0.95
2023-03-19T23:16:24.721Z,1.03
2023-03-19T23:21:21.112Z,0.80
2023-03-19T23:23:48.081Z,0.60
2023-03-19T23:26:29.076Z,0.65
2023-03-19T23:28:57.621Z,0.70
2023-03-19T23:31:24.495Z,0.70
2023-03-19T23:33:51.463Z,0.60
2023-03-19T23:36:18.519Z,0.80
2023-03-19T23:38:46.724Z,1.07
2023-03-19T23:41:22.565Z,1.20
2023-03-19T23:44:14.250Z,1.02
2023-03-19T23:46:41.693Z,0.70
2023-03-19T23:49:13.645Z,0.63
2023-03-19T23:51:42.146Z,0.80
2023-03-19T23:54:31.288Z,1.07
2023-03-19T23:57:01.199Z,0.60
2023-03-19T23:59:50.655Z,0.67
